Time;durP1;ratioP1;P1;durP2;ratioP2;P2;SDS_P1;SDS_P2;PMS_P1;PMS_P2;Temp;Humidity;BMP_temperature;BMP_pressure;BME280_temperature;BME280_humidity;BME280_pressure;Samples;Min_cycle;Max_cycle;Signal;HPM_P1;HPM_P2
2021/08/15 00:00:06;;;;;;;7.50;3.90;;;21.10;70.10;;;;;;4982424;28;20531;-46
2021/08/15 00:02:33;;;;;;;7.60;3.67;;;21.00;70.30;;;;;;4973462;28;20489;-46
2021/08/15 00:05:00;;;;;;;7.47;4.20;;;21.00;70.50;;;;;;4981030;28;20928;-46
2021/08/15 00:07:27;;;;;;;6.10;4.10;;;21.00;70.60;;;;;;4988206;28;21022;-46
2021/08/15 00:09:55;;;;;;;8.57;5.77;;;21.00;70.80;;;;;;4982843;28;20483;-46
2021/08/15 00:12:21;;;;;;;7.97;4.03;;;20.90;70.90;;;;;;4979934;28;20954;-46
2021/08/15 00:14:48;;;;;;;5.53;3.93;;;20.90;70.90;;;;;;4974122;28;20595;-46
2021/08/15 00:17:15;;;;;;;5.70;4.77;;;20.90;71.10;;;;;;4970251;28;20484;-45
2021/08/15 00:19:44;;;;;;;6.40;3.70;;;20.90;71.20;;;;;;4966304;28;20474;-45
2021/08/15 00:22:11;;;;;;;6.07;4.10;;;20.90;71.30;;;;;;4970568;28;20980;-46
2021/08/15 00:24:38;;;;;;;7.87;3.90;;;20.80;71.30;;;;;;4980061;28;20469;-46
2021/08/15 00:27:05;;;;;;;10.87;4.43;;;20.80;71.40;;;;;;4977849;28;20492;-46
2021/08/15 00:29:32;;;;;;;4.90;3.63;;;20.80;71.60;;;;;;4976331;28;20851;-46
2021/08/15 00:31:59;;;;;;;7.30;4.13;;;20.80;71.60;;;;;;4979401;28;20450;-46
2021/08/15 00:34:28;;;;;;;6.97;4.40;;;20.80;71.80;;;;;;4993091;28;20939;-46
2021/08/15 00:36:55;;;;;;;7.60;4.17;;;20.70;72.00;;;;;;4969818;28;20457;-42
2021/08/15 00:39:21;;;;;;;7.93;4.23;;;20.70;72.10;;;;;;4978909;28;20465;-42
2021/08/15 00:41:48;;;;;;;6.23;3.87;;;20.70;72.20;;;;;;4981722;28;20465;-42
2021/08/15 00:44:15;;;;;;;7.80;4.90;;;20.70;72.20;;;;;;4970373;28;20458;-42
2021/08/15 00:46:42;;;;;;;7.33;4.27;;;20.70;72.30;;;;;;4974375;28;20462;-42
2021/08/15 00:49:09;;;;;;;6.57;4.50;;;20.70;72.40;;;;;;4965854;28;20512;-42
2021/08/15 00:51:36;;;;;;;10.50;5.60;;;20.60;72.50;;;;;;4977346;28;20462;-42
2021/08/15 00:54:04;;;;;;;7.23;4.27;;;20.60;72.70;;;;;;4981477;28;20455;-42
2021/08/15 00:56:32;;;;;;;7.40;4.73;;;20.60;72.80;;;;;;4976878;28;20462;-42
2021/08/15 00:59:00;;;;;;;7.90;4.23;;;20.60;73.00;;;;;;4962413;28;20979;-42
2021/08/15 01:01:27;;;;;;;9.27;4.40;;;20.60;73.00;;;;;;4975537;28;20468;-42
2021/08/15 01:03:54;;;;;;;6.70;4.40;;;20.60;73.00;;;;;;4979684;28;20552;-42
2021/08/15 01:06:21;;;;;;;5.40;4.03;;;20.50;72.90;;;;;;4977262;28;20469;-42
2021/08/15 01:08:47;;;;;;;7.33;4.07;;;20.50;73.00;;;;;;4968074;28;20494;-42
2021/08/15 01:11:14;;;;;;;5.63;3.70;;;20.50;73.00;;;;;;4966762;28;20825;-42
2021/08/15 01:13:41;;;;;;;8.23;4.30;;;20.50;72.70;;;;;;4977961;28;20485;-43
2021/08/15 01:16:09;;;;;;;5.80;4.13;;;20.50;71.90;;;;;;4964239;28;20465;-42
2021/08/15 01:18:38;;;;;;;9.43;4.40;;;20.40;71.90;;;;;;4965926;28;20467;-42
2021/08/15 01:21:12;;;;;;;6.47;3.77;;;20.40;72.10;;;;;;4976410;28;20459;-42
2021/08/15 01:23:42;;;;;;;8.63;4.33;;;20.30;72.20;;;;;;4976360;28;20473;-42
2021/08/15 01:26:11;;;;;;;6.00;3.63;;;20.30;72.50;;;;;;4978429;28;20500;-42
2021/08/15 01:28:39;;;;;;;7.83;4.70;;;20.30;72.60;;;;;;4991155;28;20503;-42
2021/08/15 01:31:07;;;;;;;5.50;3.83;;;20.20;72.50;;;;;;4971368;28;20977;-42
2021/08/15 01:33:37;;;;;;;6.53;3.67;;;20.20;72.70;;;;;;4971303;28;20970;-42
2021/08/15 01:36:04;;;;;;;9.00;4.70;;;20.20;72.80;;;;;;4974357;28;20462;-42
2021/08/15 01:38:36;;;;;;;8.00;4.73;;;20.10;72.90;;;;;;5006757;28;20462;-42
2021/08/15 01:41:05;;;;;;;4.63;3.50;;;20.10;73.20;;;;;;4977437;28;20459;-42
2021/08/15 01:43:45;;;;;;;6.33;4.40;;;20.10;73.20;;;;;;4970282;28;20561;-42
2021/08/15 01:46:16;;;;;;;6.83;4.10;;;20.10;73.40;;;;;;4971132;28;20462;-42
2021/08/15 01:48:45;;;;;;;5.90;3.87;;;20.10;73.00;;;;;;4971333;28;20490;-42
2021/08/15 01:51:14;;;;;;;7.77;4.00;;;20.00;73.30;;;;;;4970135;28;20826;-42
2021/08/15 01:53:41;;;;;;;6.77;4.47;;;20.00;73.40;;;;;;4967860;28;20489;-42
2021/08/15 01:56:08;;;;;;;6.60;3.80;;;19.90;73.50;;;;;;4984721;28;20462;-42
2021/08/15 01:58:35;;;;;;;6.93;3.70;;;19.90;73.60;;;;;;4975387;28;20922;-42
2021/08/15 02:01:02;;;;;;;8.10;3.97;;;19.90;73.70;;;;;;4970654;28;20892;-42
2021/08/15 02:03:30;;;;;;;5.90;3.33;;;19.90;73.50;;;;;;4976389;28;20468;-42
2021/08/15 02:05:57;;;;;;;8.50;4.10;;;19.90;73.50;;;;;;4977121;28;20463;-42
2021/08/15 02:08:24;;;;;;;14.93;5.37;;;19.90;73.20;;;;;;4982475;28;20446;-42
2021/08/15 02:10:51;;;;;;;10.57;4.07;;;19.90;73.10;;;;;;4968601;28;20473;-42
2021/08/15 02:13:18;;;;;;;8.13;4.00;;;19.90;72.90;;;;;;4979563;28;20458;-42
2021/08/15 02:15:45;;;;;;;26.60;5.10;;;19.90;72.60;;;;;;4974485;28;20469;-42
2021/08/15 02:18:12;;;;;;;9.50;4.17;;;19.80;73.00;;;;;;4969303;28;20465;-42
2021/08/15 02:20:39;;;;;;;8.60;4.60;;;19.80;73.20;;;;;;4977414;28;20470;-42
2021/08/15 02:23:09;;;;;;;9.67;4.47;;;19.70;73.30;;;;;;4979197;28;20466;-42
2021/08/15 02:25:36;;;;;;;6.80;3.70;;;19.70;73.50;;;;;;4971694;28;20729;-42
2021/08/15 02:28:04;;;;;;;7.33;3.80;;;19.60;73.50;;;;;;4968746;28;20540;-42
2021/08/15 02:30:32;;;;;;;9.03;3.70;;;19.60;73.60;;;;;;4989702;28;20487;-42
2021/08/15 02:32:59;;;;;;;11.00;4.60;;;19.60;73.60;;;;;;4971291;28;20454;-42
2021/08/15 02:35:31;;;;;;;5.83;3.80;;;19.50;73.60;;;;;;4970294;28;20467;-42
2021/08/15 02:37:59;;;;;;;8.37;4.10;;;19.50;73.80;;;;;;4971550;28;20450;-42
2021/08/15 02:40:26;;;;;;;8.10;3.90;;;19.50;73.90;;;;;;4974279;28;20462;-42
2021/08/15 02:42:53;;;;;;;8.90;4.37;;;19.40;74.00;;;;;;4977675;28;20846;-42
2021/08/15 02:45:22;;;;;;;6.93;4.20;;;19.40;74.10;;;;;;4975426;28;20466;-42
2021/08/15 02:47:49;;;;;;;6.07;4.10;;;19.40;74.20;;;;;;4984739;28;21000;-42
2021/08/15 02:50:16;;;;;;;6.97;4.30;;;19.40;73.90;;;;;;4965931;28;20486;-42
2021/08/15 02:52:44;;;;;;;10.27;4.63;;;19.40;73.80;;;;;;4972071;28;20463;-42
2021/08/15 02:55:11;;;;;;;9.37;4.30;;;19.40;73.70;;;;;;4967199;28;20501;-43
2021/08/15 02:57:38;;;;;;;9.20;3.80;;;19.30;73.80;;;;;;4975337;28;20470;-45
2021/08/15 03:00:07;;;;;;;6.53;3.70;;;19.30;73.80;;;;;;4970752;28;20462;-45
2021/08/15 03:02:35;;;;;;;11.00;4.30;;;19.30;73.70;;;;;;4969436;28;20488;-45
2021/08/15 03:05:03;;;;;;;6.03;3.83;;;19.30;73.90;;;;;;4970748;28;20517;-45
2021/08/15 03:07:30;;;;;;;7.60;3.70;;;19.20;74.10;;;;;;4978238;28;20532;-46
2021/08/15 03:09:57;;;;;;;7.27;4.67;;;19.10;74.40;;;;;;4978032;28;20844;-45
2021/08/15 03:12:24;;;;;;;6.07;4.67;;;19.10;74.60;;;;;;4980424;28;20467;-46
2021/08/15 03:14:50;;;;;;;6.80;3.87;;;19.10;74.70;;;;;;4973933;28;20458;-46
2021/08/15 03:17:17;;;;;;;5.33;3.40;;;19.10;74.90;;;;;;4980333;28;20462;-45
2021/08/15 03:19:44;;;;;;;7.50;4.00;;;19.00;75.00;;;;;;4973750;28;20462;-45
2021/08/15 03:22:11;;;;;;;9.70;4.00;;;19.00;75.20;;;;;;4969782;28;20982;-45
2021/08/15 03:24:38;;;;;;;9.17;5.17;;;19.00;75.30;;;;;;4978225;28;20468;-45
2021/08/15 03:27:05;;;;;;;9.63;4.23;;;19.00;75.50;;;;;;4988416;28;20474;-45
2021/08/15 03:29:31;;;;;;;10.40;3.30;;;19.00;75.60;;;;;;4978818;28;20493;-45
2021/08/15 03:31:58;;;;;;;9.17;4.60;;;18.90;75.70;;;;;;4983495;28;20988;-46
2021/08/15 03:34:25;;;;;;;6.00;3.90;;;18.90;75.80;;;;;;4978741;28;20553;-45
2021/08/15 03:36:52;;;;;;;5.63;3.43;;;18.90;75.90;;;;;;4994591;28;20959;-45
2021/08/15 03:39:19;;;;;;;8.50;3.90;;;18.90;76.00;;;;;;4977729;28;20459;-45
2021/08/15 03:41:46;;;;;;;7.23;4.10;;;18.90;76.00;;;;;;4969682;28;20466;-46
2021/08/15 03:44:14;;;;;;;6.50;3.53;;;18.90;76.00;;;;;;4978986;28;20473;-45
2021/08/15 03:46:41;;;;;;;8.43;4.80;;;18.80;76.10;;;;;;4975173;28;20520;-45
2021/08/15 03:49:08;;;;;;;5.57;3.50;;;18.80;76.10;;;;;;4971361;28;20542;-45
2021/08/15 03:51:35;;;;;;;8.00;4.30;;;18.80;76.10;;;;;;4974737;28;20465;-46
2021/08/15 03:54:02;;;;;;;7.53;4.00;;;18.80;76.10;;;;;;4967021;28;20472;-46
2021/08/15 03:56:29;;;;;;;6.97;4.00;;;18.80;76.10;;;;;;4987432;28;20981;-46
2021/08/15 03:58:56;;;;;;;8.10;3.80;;;18.80;76.20;;;;;;4974870;28;20975;-45
2021/08/15 04:01:23;;;;;;;7.60;3.90;;;18.80;76.20;;;;;;4975051;28;20455;-45
2021/08/15 04:03:52;;;;;;;7.13;3.67;;;18.70;76.20;;;;;;4975067;28;20475;-45
2021/08/15 04:06:22;;;;;;;6.73;4.07;;;18.70;76.30;;;;;;4964873;28;20456;-45
2021/08/15 04:08:50;;;;;;;8.03;4.83;;;18.70;76.40;;;;;;4976922;28;20488;-46
2021/08/15 04:11:18;;;;;;;8.80;4.30;;;18.70;76.40;;;;;;4980484;28;20498;-46
2021/08/15 04:13:46;;;;;;;6.03;4.00;;;18.70;76.10;;;;;;4977796;28;20529;-45
2021/08/15 04:16:13;;;;;;;7.73;4.60;;;18.70;76.00;;;;;;4976898;28;20499;-45
2021/08/15 04:18:40;;;;;;;5.87;3.70;;;18.60;76.30;;;;;;4970153;28;20462;-45
2021/08/15 04:21:09;;;;;;;9.83;3.60;;;18.60;76.40;;;;;;5006690;28;20458;-45
2021/08/15 04:23:36;;;;;;;12.90;4.50;;;18.60;76.50;;;;;;4969597;28;20472;-45
2021/08/15 04:26:04;;;;;;;9.23;4.00;;;18.50;76.60;;;;;;4972854;28;20489;-45
2021/08/15 04:28:31;;;;;;;8.47;5.00;;;18.50;76.80;;;;;;4988521;28;20985;-45
2021/08/15 04:30:58;;;;;;;14.23;4.83;;;18.50;76.90;;;;;;4972475;28;20935;-46
2021/08/15 04:33:25;;;;;;;5.40;3.57;;;18.40;76.80;;;;;;4980885;28;20507;-45
2021/08/15 04:35:52;;;;;;;11.00;4.33;;;18.50;76.80;;;;;;4977327;28;20456;-45
2021/08/15 04:38:21;;;;;;;8.87;4.37;;;18.40;76.90;;;;;;4971824;28;20470;-45
2021/08/15 04:40:50;;;;;;;9.47;3.90;;;18.40;77.20;;;;;;4985651;28;20467;-45
2021/08/15 04:43:20;;;;;;;8.07;4.47;;;18.40;77.20;;;;;;4973546;28;20938;-45
2021/08/15 04:45:48;;;;;;;7.07;4.60;;;18.40;77.30;;;;;;4967753;28;20548;-45
2021/08/15 04:48:16;;;;;;;8.00;4.17;;;18.40;77.30;;;;;;4987797;28;20470;-45
2021/08/15 04:50:43;;;;;;;9.53;5.07;;;18.30;77.40;;;;;;4975002;28;20500;-46
2021/08/15 04:53:12;;;;;;;7.53;3.73;;;18.30;77.50;;;;;;4970691;28;20652;-46
2021/08/15 04:55:40;;;;;;;7.60;3.40;;;18.30;77.50;;;;;;4975905;28;20462;-45
2021/08/15 04:58:07;;;;;;;7.90;4.37;;;18.30;77.50;;;;;;4975460;28;21006;-45
2021/08/15 05:00:34;;;;;;;5.70;3.87;;;18.40;77.30;;;;;;4973027;28;20493;-46
2021/08/15 05:03:05;;;;;;;4.70;4.00;;;18.40;77.20;;;;;;4976341;28;20470;-46
2021/08/15 05:05:32;;;;;;;9.10;3.93;;;18.40;77.20;;;;;;4985865;28;20545;-46
2021/08/15 05:07:59;;;;;;;7.07;3.80;;;18.40;77.20;;;;;;4973982;28;20854;-46
2021/08/15 05:10:25;;;;;;;7.17;4.37;;;18.40;77.30;;;;;;4971386;28;20486;-45
2021/08/15 05:12:52;;;;;;;5.40;3.90;;;18.40;77.30;;;;;;4979971;28;20980;-46
2021/08/15 05:15:19;;;;;;;9.33;3.90;;;18.40;77.30;;;;;;4971365;28;20547;-46
2021/08/15 05:17:46;;;;;;;9.30;5.40;;;18.40;77.50;;;;;;4974419;28;20469;-45
2021/08/15 05:20:13;;;;;;;6.00;4.13;;;18.50;77.60;;;;;;4984462;28;20896;-45
2021/08/15 05:22:40;;;;;;;7.23;4.03;;;18.50;77.70;;;;;;4973613;28;20817;-45
2021/08/15 05:25:08;;;;;;;9.30;5.07;;;18.50;77.90;;;;;;4972326;28;20469;-45
2021/08/15 05:27:34;;;;;;;13.00;5.10;;;18.50;78.10;;;;;;4980528;28;20572;-45
2021/08/15 05:30:02;;;;;;;8.20;4.70;;;18.50;78.20;;;;;;4972872;28;20474;-45
2021/08/15 05:32:34;;;;;;;7.80;4.50;;;18.60;78.20;;;;;;4985176;28;20480;-45
2021/08/15 05:35:03;;;;;;;9.40;4.50;;;18.60;78.20;;;;;;4979184;28;20462;-45
2021/08/15 05:37:30;;;;;;;9.47;4.60;;;18.70;78.10;;;;;;4974965;28;20468;-45
2021/08/15 05:39:57;;;;;;;7.83;4.83;;;18.80;77.70;;;;;;4970431;28;20466;-45
2021/08/15 05:42:24;;;;;;;7.87;4.30;;;18.80;77.50;;;;;;4983127;28;20489;-45
2021/08/15 05:44:50;;;;;;;6.77;5.90;;;18.90;77.60;;;;;;4976805;28;20516;-46
2021/08/15 05:47:17;;;;;;;10.40;4.77;;;18.90;77.50;;;;;;4984179;28;20562;-45
2021/08/15 05:49:44;;;;;;;6.97;4.60;;;19.00;77.30;;;;;;4976359;28;21040;-45
2021/08/15 05:52:10;;;;;;;6.87;5.10;;;19.00;77.30;;;;;;4972179;28;20477;-45
2021/08/15 05:54:39;;;;;;;5.40;4.50;;;19.10;77.20;;;;;;4973477;28;20467;-45
2021/08/15 05:57:06;;;;;;;7.77;4.90;;;19.10;77.10;;;;;;4972916;28;20450;-46
2021/08/15 05:59:34;;;;;;;8.73;4.57;;;19.20;77.10;;;;;;4975169;28;20474;-46
2021/08/15 06:02:01;;;;;;;7.10;4.80;;;19.30;76.60;;;;;;4963788;28;20466;-46
2021/08/15 06:04:28;;;;;;;9.13;5.00;;;19.40;76.00;;;;;;4962274;28;20923;-45
2021/08/15 06:06:55;;;;;;;6.13;4.50;;;19.50;75.50;;;;;;4995540;28;20513;-46
2021/08/15 06:09:22;;;;;;;7.50;5.37;;;19.60;75.40;;;;;;4979988;28;20548;-46
2021/08/15 06:11:49;;;;;;;10.70;4.50;;;19.60;75.30;;;;;;4981245;28;20498;-46
2021/08/15 06:14:16;;;;;;;7.40;4.47;;;19.70;75.00;;;;;;4967884;28;20473;-46
2021/08/15 06:16:43;;;;;;;9.77;4.83;;;19.70;75.00;;;;;;4989095;28;20485;-46
2021/08/15 06:19:10;;;;;;;7.63;5.00;;;19.80;74.80;;;;;;4969301;28;20934;-46
2021/08/15 06:21:37;;;;;;;7.27;4.10;;;19.90;74.70;;;;;;4990842;28;20459;-46
2021/08/15 06:24:05;;;;;;;5.90;4.10;;;19.90;74.70;;;;;;4978073;28;20458;-46
2021/08/15 06:26:32;;;;;;;9.90;4.53;;;19.90;74.70;;;;;;4976383;28;20831;-45
2021/08/15 06:28:59;;;;;;;8.10;4.50;;;20.00;74.60;;;;;;4975065;28;20466;-46
2021/08/15 06:31:26;;;;;;;7.80;4.97;;;20.10;74.40;;;;;;4971517;28;20493;-46
2021/08/15 06:33:53;;;;;;;9.53;5.07;;;20.10;74.50;;;;;;4972235;28;20469;-46
2021/08/15 06:36:20;;;;;;;5.70;4.20;;;20.20;74.20;;;;;;4974920;28;20459;-46
2021/08/15 06:38:47;;;;;;;6.50;4.53;;;20.20;74.30;;;;;;4973014;28;20470;-46
2021/08/15 06:41:14;;;;;;;9.40;5.03;;;20.30;74.20;;;;;;4985644;28;20464;-46
2021/08/15 06:43:43;;;;;;;5.60;4.10;;;20.40;74.10;;;;;;4975604;28;20965;-46
2021/08/15 06:46:11;;;;;;;8.30;5.20;;;20.50;73.70;;;;;;4982950;28;20545;-46
2021/08/15 06:48:38;;;;;;;8.63;4.90;;;20.50;73.60;;;;;;4973818;28;20953;-46
2021/08/15 06:51:08;;;;;;;9.13;4.73;;;20.60;73.20;;;;;;4972418;28;21005;-46
2021/08/15 06:53:38;;;;;;;7.60;4.73;;;20.70;73.00;;;;;;4965078;28;20458;-46
2021/08/15 06:56:06;;;;;;;7.97;4.67;;;20.80;72.70;;;;;;4970293;28;20826;-46
2021/08/15 06:58:33;;;;;;;6.77;5.30;;;21.00;72.40;;;;;;4980992;28;20464;-46
2021/08/15 07:01:00;;;;;;;10.33;4.67;;;21.10;72.20;;;;;;4959830;28;21050;-46
2021/08/15 07:03:26;;;;;;;8.30;5.57;;;21.20;71.90;;;;;;4978926;28;20454;-46
2021/08/15 07:05:53;;;;;;;8.20;4.73;;;21.30;71.20;;;;;;4997697;28;20449;-46
2021/08/15 07:08:21;;;;;;;11.93;5.67;;;21.40;70.40;;;;;;4975316;28;20811;-46
2021/08/15 07:10:48;;;;;;;8.70;4.50;;;21.50;70.10;;;;;;4972843;28;20489;-46
2021/08/15 07:13:22;;;;;;;7.87;4.27;;;21.70;69.80;;;;;;4973510;28;20561;-46
2021/08/15 07:15:51;;;;;;;9.20;4.90;;;21.90;69.10;;;;;;4982674;28;20990;-46
2021/08/15 07:18:19;;;;;;;5.23;3.80;;;22.00;68.80;;;;;;4975002;28;20985;-46
2021/08/15 07:20:47;;;;;;;8.83;4.27;;;22.00;68.80;;;;;;4986729;28;20935;-46
2021/08/15 07:23:13;;;;;;;6.67;4.80;;;22.20;68.90;;;;;;4970020;28;20677;-46
2021/08/15 07:25:40;;;;;;;6.90;4.33;;;22.30;68.60;;;;;;4979603;28;20466;-46
2021/08/15 07:28:07;;;;;;;9.23;5.07;;;22.50;68.50;;;;;;4967067;28;20488;-46
2021/08/15 07:30:34;;;;;;;9.60;5.00;;;22.70;68.10;;;;;;4992234;28;20479;-46
2021/08/15 07:33:04;;;;;;;8.90;4.43;;;22.90;66.50;;;;;;4969640;28;20455;-46
2021/08/15 07:35:33;;;;;;;6.03;4.90;;;23.10;66.10;;;;;;4987524;28;20938;-46
2021/08/15 07:38:00;;;;;;;8.13;5.10;;;23.30;66.10;;;;;;4981937;28;21073;-46
2021/08/15 07:40:27;;;;;;;7.30;4.60;;;23.50;65.80;;;;;;4977988;28;20472;-46
2021/08/15 07:42:54;;;;;;;7.00;3.63;;;23.60;65.30;;;;;;4988107;28;21044;-46
2021/08/15 07:45:28;;;;;;;8.57;4.20;;;23.70;63.80;;;;;;4980248;28;20480;-46
2021/08/15 07:47:55;;;;;;;9.30;4.47;;;23.80;63.40;;;;;;4956892;28;20471;-46
2021/08/15 07:50:24;;;;;;;7.67;4.23;;;24.00;62.50;;;;;;4969172;28;21001;-46
2021/08/15 07:52:53;;;;;;;7.10;4.20;;;24.20;61.70;;;;;;5003441;28;20464;-46
2021/08/15 07:55:22;;;;;;;4.80;3.67;;;24.30;61.50;;;;;;4982376;28;20530;-46
2021/08/15 07:57:48;;;;;;;7.10;4.20;;;24.40;61.50;;;;;;4980344;28;20813;-46
2021/08/15 08:00:15;;;;;;;5.87;4.00;;;24.60;61.70;;;;;;4980326;28;20450;-46
2021/08/15 08:02:42;;;;;;;5.60;4.10;;;24.80;60.50;;;;;;4977188;28;20457;-45
2021/08/15 08:05:09;;;;;;;6.77;4.80;;;24.90;60.10;;;;;;4986790;28;20473;-46
2021/08/15 08:07:36;;;;;;;8.87;4.77;;;25.00;60.20;;;;;;4980889;28;20465;-46
2021/08/15 08:10:03;;;;;;;9.20;4.00;;;25.10;60.40;;;;;;4975576;28;20441;-46
2021/08/15 08:12:32;;;;;;;7.77;4.47;;;25.20;60.50;;;;;;4992826;28;20506;-46
2021/08/15 08:14:59;;;;;;;5.13;3.80;;;25.30;60.20;;;;;;4989797;28;20453;-46
2021/08/15 08:17:26;;;;;;;6.07;3.47;;;25.40;60.30;;;;;;4986775;28;20515;-46
2021/08/15 08:19:53;;;;;;;4.80;3.93;;;25.50;60.40;;;;;;4986235;28;20455;-46
2021/08/15 08:22:20;;;;;;;5.07;3.17;;;25.60;59.70;;;;;;4985135;28;20462;-46
2021/08/15 08:24:46;;;;;;;6.20;3.50;;;25.80;58.30;;;;;;4972646;28;20470;-46
2021/08/15 08:27:13;;;;;;;4.77;3.10;;;25.90;56.00;;;;;;4980154;28;20497;-46
2021/08/15 08:29:40;;;;;;;5.77;3.20;;;26.10;55.40;;;;;;4985693;28;20470;-47
2021/08/15 08:32:07;;;;;;;5.27;2.90;;;26.20;55.20;;;;;;4989680;28;20485;-47
2021/08/15 08:34:33;;;;;;;4.30;2.80;;;26.40;54.10;;;;;;4975689;28;20545;-48
2021/08/15 08:37:01;;;;;;;9.30;3.50;;;26.50;53.60;;;;;;4984255;28;20442;-48
2021/08/15 08:39:30;;;;;;;3.60;2.57;;;26.60;53.70;;;;;;4978163;28;20454;-47
2021/08/15 08:42:02;;;;;;;5.83;2.77;;;26.70;53.20;;;;;;4985580;28;20544;-47
2021/08/15 08:44:31;;;;;;;6.20;3.23;;;26.90;53.00;;;;;;5001616;28;20470;-48
2021/08/15 08:47:09;;;;;;;6.63;2.97;;;27.00;52.90;;;;;;4986788;28;21036;-47
2021/08/15 08:49:39;;;;;;;6.47;3.03;;;27.20;52.70;;;;;;4968562;28;20465;-46
2021/08/15 08:52:06;;;;;;;3.93;2.70;;;27.40;51.40;;;;;;4981549;28;20489;-46
2021/08/15 08:54:34;;;;;;;4.80;3.17;;;27.50;50.30;;;;;;4978181;28;20441;-46
2021/08/15 08:57:02;;;;;;;4.20;2.70;;;27.70;51.60;;;;;;4975625;28;20477;-46
2021/08/15 08:59:28;;;;;;;5.50;3.23;;;27.90;50.90;;;;;;4991464;28;20627;-47
2021/08/15 09:01:55;;;;;;;6.20;2.70;;;28.10;50.30;;;;;;4973950;28;20457;-46
2021/08/15 09:04:23;;;;;;;3.20;2.43;;;28.30;49.10;;;;;;4986662;28;20214;-46
2021/08/15 09:06:50;;;;;;;5.90;3.13;;;28.50;48.10;;;;;;4984361;28;20448;-46
2021/08/15 09:09:19;;;;;;;8.17;2.63;;;28.80;47.30;;;;;;4976875;28;20217;-46
2021/08/15 09:11:48;;;;;;;5.47;3.07;;;29.00;46.60;;;;;;4975852;28;20236;-46
2021/08/15 09:14:20;;;;;;;3.83;2.43;;;29.30;46.80;;;;;;4974004;28;20569;-47
2021/08/15 09:16:51;;;;;;;2.93;2.27;;;29.60;46.70;;;;;;4972903;28;20207;-47
2021/08/15 09:19:39;;;;;;;5.68;3.22;;;29.90;45.90;;;;;;4970512;28;20207;-46
2021/08/15 09:22:28;;;;;;;3.53;2.17;;;30.20;45.60;;;;;;4970190;28;20218;-46
2021/08/15 09:25:11;;;;;;;5.40;3.00;;;30.50;45.10;;;;;;4971153;28;20245;-46
2021/08/15 09:27:56;;;;;;;3.63;2.95;;;30.90;44.80;;;;;;4976668;28;20747;-47
2021/08/15 09:30:33;;;;;;;4.28;2.70;;;31.20;44.20;;;;;;4972440;28;20732;-47
2021/08/15 09:33:08;;;;;;;4.47;2.85;;;31.60;43.60;;;;;;4970780;28;20202;-47
2021/08/15 09:35:35;;;;;;;4.32;2.22;;;32.00;43.10;;;;;;4994988;28;20207;-47
2021/08/15 09:38:02;;;;;;;4.50;2.53;;;32.30;43.10;;;;;;4976402;28;20211;-47
2021/08/15 09:40:42;;;;;;;3.22;2.28;;;32.50;43.20;;;;;;4988833;28;20214;-47
2021/08/15 09:43:11;;;;;;;4.80;2.63;;;32.70;42.70;;;;;;4972178;28;20208;-47
2021/08/15 09:45:52;;;;;;;5.78;2.90;;;32.90;42.20;;;;;;4969585;28;20232;-47
2021/08/15 09:48:31;;;;;;;6.95;3.03;;;33.10;42.10;;;;;;4970227;28;20202;-47
2021/08/15 09:51:10;;;;;;;5.47;3.28;;;33.40;40.60;;;;;;4975247;28;20230;-47
2021/08/15 09:53:41;;;;;;;3.80;2.35;;;33.60;40.40;;;;;;4989438;28;20297;-47
2021/08/15 09:56:08;;;;;;;4.15;2.60;;;33.70;40.80;;;;;;4969230;28;20685;-47
2021/08/15 09:58:35;;;;;;;3.90;2.72;;;33.90;40.60;;;;;;5007185;28;20201;-47
2021/08/15 10:01:04;;;;;;;4.97;3.20;;;34.00;40.30;;;;;;4968546;28;20236;-47
2021/08/15 10:03:34;;;;;;;4.38;2.70;;;34.10;40.30;;;;;;4975550;28;20206;-47
2021/08/15 10:06:03;;;;;;;3.38;2.50;;;34.30;40.10;;;;;;4976667;28;20214;-47
2021/08/15 10:08:30;;;;;;;4.05;3.00;;;34.40;39.60;;;;;;4970971;28;20215;-47
2021/08/15 10:10:58;;;;;;;3.33;2.15;;;34.60;39.70;;;;;;4971894;28;20345;-47
2021/08/15 10:13:25;;;;;;;5.15;2.22;;;34.90;39.00;;;;;;4969326;28;20205;-47
2021/08/15 10:16:05;;;;;;;4.65;2.47;;;35.00;38.50;;;;;;4966478;28;20755;-47
2021/08/15 10:18:37;;;;;;;5.40;2.10;;;35.10;38.60;;;;;;4979578;28;20307;-47
2021/08/15 10:21:10;;;;;;;4.25;3.00;;;35.20;37.50;;;;;;4967315;28;20212;-47
2021/08/15 10:23:39;;;;;;;3.60;1.98;;;35.30;37.70;;;;;;4974424;28;20295;-47
2021/08/15 10:26:25;;;;;;;3.17;2.03;;;35.30;37.50;;;;;;4966721;28;20439;-47
2021/08/15 10:28:54;;;;;;;2.30;2.05;;;35.20;36.30;;;;;;4971822;28;20222;-47
2021/08/15 10:31:21;;;;;;;3.45;2.17;;;34.90;36.70;;;;;;4981621;28;20240;-47
2021/08/15 10:33:57;;;;;;;6.80;2.40;;;34.50;37.20;;;;;;4971957;28;20199;-47
2021/08/15 10:36:28;;;;;;;3.42;2.00;;;34.00;38.60;;;;;;4951538;28;20293;-47
2021/08/15 10:38:57;;;;;;;2.33;1.85;;;33.60;39.70;;;;;;4974222;28;20543;-47
2021/08/15 10:41:47;;;;;;;4.68;1.70;;;33.10;39.40;;;;;;4977817;28;20642;-47
2021/08/15 10:44:15;;;;;;;1.50;1.30;;;32.70;39.90;;;;;;4976391;28;20242;-47
2021/08/15 10:47:04;;;;;;;1.83;1.25;;;32.30;39.60;;;;;;4955974;28;20202;-47
2021/08/15 10:49:48;;;;;;;2.92;1.50;;;31.90;40.30;;;;;;4984240;28;20214;-47
2021/08/15 10:52:40;;;;;;;3.72;1.75;;;31.70;41.20;;;;;;4974267;28;20668;-47
2021/08/15 10:55:10;;;;;;;2.25;1.75;;;31.60;42.10;;;;;;4999354;28;20228;-47
2021/08/15 10:57:50;;;;;;;1.80;1.50;;;31.70;41.30;;;;;;4975117;28;20209;-47
2021/08/15 11:00:29;;;;;;;4.63;1.65;;;31.70;41.30;;;;;;4973558;28;20210;-47
2021/08/15 11:02:57;;;;;;;2.78;1.98;;;31.60;41.30;;;;;;4974196;28;20271;-47
2021/08/15 11:05:35;;;;;;;1.55;1.45;;;31.50;41.60;;;;;;4981329;28;20603;-47
2021/08/15 11:08:02;;;;;;;2.30;1.77;;;31.30;42.20;;;;;;4981965;28;20220;-47
2021/08/15 11:11:05;;;;;;;1.70;1.60;;;31.10;42.90;;;;;;4980279;28;20206;-47
2021/08/15 11:13:33;;;;;;;3.95;2.15;;;30.80;43.20;;;;;;4980585;28;20234;-46
2021/08/15 11:16:22;;;;;;;2.35;1.60;;;30.50;43.70;;;;;;4966910;28;20228;-47
2021/08/15 11:19:08;;;;;;;2.75;1.80;;;30.30;44.10;;;;;;4989488;28;20221;-47
2021/08/15 11:22:06;;;;;;;4.32;1.30;;;30.00;43.90;;;;;;4968251;28;20206;-47
2021/08/15 11:24:36;;;;;;;2.95;1.70;;;29.80;44.50;;;;;;4979127;28;20235;-47
2021/08/15 11:27:05;;;;;;;3.03;1.60;;;29.60;44.70;;;;;;4978493;28;20606;-46
2021/08/15 11:29:32;;;;;;;3.42;2.10;;;29.50;45.40;;;;;;4971405;28;20243;-47
2021/08/15 11:31:59;;;;;;;3.23;1.63;;;29.40;45.50;;;;;;4969639;28;20238;-47
2021/08/15 11:34:26;;;;;;;2.37;1.63;;;29.30;46.30;;;;;;4977677;28;20699;-47
2021/08/15 11:36:59;;;;;;;2.60;1.60;;;29.20;46.30;;;;;;4980171;28;20571;-47
2021/08/15 11:39:29;;;;;;;2.30;1.50;;;29.10;46.80;;;;;;4999835;28;20203;-46
2021/08/15 11:41:55;;;;;;;2.10;1.70;;;29.10;46.50;;;;;;4983326;28;20220;-47
2021/08/15 11:44:22;;;;;;;2.22;1.55;;;29.00;46.70;;;;;;4984886;28;20583;-47
2021/08/15 11:46:49;;;;;;;5.07;2.33;;;29.10;47.00;;;;;;4972483;28;20223;-47
2021/08/15 11:49:33;;;;;;;1.93;1.73;;;29.10;47.20;;;;;;4971756;28;20704;-47
2021/08/15 11:52:18;;;;;;;3.77;1.80;;;29.10;46.40;;;;;;4975852;28;20233;-47
2021/08/15 11:54:46;;;;;;;2.20;2.00;;;29.00;47.20;;;;;;4972978;28;20217;-47
2021/08/15 11:57:14;;;;;;;1.93;1.50;;;29.00;46.90;;;;;;4972009;28;20217;-47
2021/08/15 11:59:43;;;;;;;2.75;1.90;;;29.00;47.00;;;;;;4988263;28;20198;-47
2021/08/15 12:02:16;;;;;;;4.90;1.55;;;29.00;46.90;;;;;;4973855;28;20210;-46
2021/08/15 12:04:45;;;;;;;2.43;1.30;;;29.00;46.80;;;;;;4975467;28;20662;-47
2021/08/15 12:07:19;;;;;;;2.05;1.70;;;28.90;46.80;;;;;;4978401;28;20676;-47
2021/08/15 12:09:49;;;;;;;2.90;2.20;;;28.80;46.70;;;;;;4983431;28;20216;-47
2021/08/15 12:12:16;;;;;;;4.13;2.00;;;28.80;46.90;;;;;;4976245;28;20230;-47
2021/08/15 12:14:42;;;;;;;2.35;1.80;;;28.80;46.70;;;;;;4975991;28;20207;-47
2021/08/15 12:17:09;;;;;;;2.93;2.33;;;28.80;47.00;;;;;;4971246;28;20284;-47
2021/08/15 12:19:39;;;;;;;3.77;2.00;;;28.80;47.10;;;;;;4969746;28;20271;-47
2021/08/15 12:22:18;;;;;;;3.07;1.70;;;28.80;47.30;;;;;;4959180;28;20210;-47
2021/08/15 12:24:45;;;;;;;2.20;1.70;;;28.80;47.10;;;;;;4974916;28;20214;-47
2021/08/15 12:27:12;;;;;;;2.10;1.73;;;28.90;46.80;;;;;;5005011;28;20242;-47
2021/08/15 12:29:45;;;;;;;2.23;1.40;;;28.90;46.50;;;;;;4974288;28;20253;-47
2021/08/15 12:32:22;;;;;;;2.50;1.67;;;28.90;46.20;;;;;;4994762;28;20414;-46
2021/08/15 12:34:55;;;;;;;4.57;1.87;;;28.90;46.60;;;;;;4975959;28;20831;-47
2021/08/15 12:37:28;;;;;;;1.50;1.10;;;28.90;46.60;;;;;;4969510;28;20210;-47
2021/08/15 12:40:04;;;;;;;4.23;1.43;;;28.90;45.60;;;;;;4976499;28;20230;-47
2021/08/15 12:42:33;;;;;;;4.20;1.40;;;28.90;45.90;;;;;;4969893;28;20210;-47
2021/08/15 12:45:03;;;;;;;1.85;1.30;;;29.00;46.40;;;;;;4978677;28;20257;-47
2021/08/15 12:47:35;;;;;;;1.98;1.50;;;29.00;46.10;;;;;;4984751;28;20206;-47
2021/08/15 12:50:14;;;;;;;2.93;1.80;;;29.10;45.80;;;;;;4969806;28;20301;-47
2021/08/15 12:52:49;;;;;;;2.13;1.35;;;29.10;45.90;;;;;;4979301;28;20217;-47
2021/08/15 12:55:35;;;;;;;2.13;1.42;;;29.10;46.10;;;;;;4978789;28;20230;-47